sensor_id;sensor_type;location;lat;lon;timestamp;pressure;altitude;pressure_sealevel;temperature;humidity
64876;BME280;51369;49.862;9.908;2023-04-21T00:01:00;97966.97;;;9.79;81.87
64876;BME280;51369;49.862;9.908;2023-04-21T00:03:26;97972.38;;;9.79;82.14
64876;BME280;51369;49.862;9.908;2023-04-21T00:05:54;97964.34;;;9.77;82.09
64876;BME280;51369;49.862;9.908;2023-04-21T00:08:20;97969.69;;;9.79;81.83
64876;BME280;51369;49.862;9.908;2023-04-21T00:10:46;97971.94;;;9.88;82.02
64876;BME280;51369;49.862;9.908;2023-04-21T00:13:12;97971.94;;;9.88;81.29
64876;BME280;51369;49.862;9.908;2023-04-21T00:15:38;97974.66;;;9.88;81.51
64876;BME280;51369;49.862;9.908;2023-04-21T00:18:03;97966.34;;;9.93;81.50
64876;BME280;51369;49.862;9.908;2023-04-21T00:20:29;97978.75;;;9.97;81.29
64876;BME280;51369;49.862;9.908;2023-04-21T00:22:56;97985.81;;;9.99;81.08
64876;BME280;51369;49.862;9.908;2023-04-21T00:25:23;97983.91;;;10.01;81.72
64876;BME280;51369;49.862;9.908;2023-04-21T00:27:49;97983.84;;;10.03;81.98
64876;BME280;51369;49.862;9.908;2023-04-21T00:30:15;97983.03;;;10.01;82.13
64876;BME280;51369;49.862;9.908;2023-04-21T00:32:40;97983.13;;;9.99;81.41
64876;BME280;51369;49.862;9.908;2023-04-21T00:35:07;97972.47;;;9.96;80.84
64876;BME280;51369;49.862;9.908;2023-04-21T00:37:32;97977.00;;;9.96;81.37
64876;BME280;51369;49.862;9.908;2023-04-21T00:39:58;97973.47;;;9.94;81.33
64876;BME280;51369;49.862;9.908;2023-04-21T00:42:24;97978.06;;;9.92;81.57
64876;BME280;51369;49.862;9.908;2023-04-21T00:44:50;97981.66;;;9.92;81.03
64876;BME280;51369;49.862;9.908;2023-04-21T00:47:16;97987.84;;;9.94;81.45
64876;BME280;51369;49.862;9.908;2023-04-21T00:49:42;97996.88;;;9.93;81.88
64876;BME280;51369;49.862;9.908;2023-04-21T00:52:08;98000.44;;;9.94;81.61
64876;BME280;51369;49.862;9.908;2023-04-21T00:54:37;98003.94;;;9.96;81.65
64876;BME280;51369;49.862;9.908;2023-04-21T00:57:03;98010.16;;;9.98;82.52
64876;BME280;51369;49.862;9.908;2023-04-21T00:59:29;98007.38;;;9.99;82.23
64876;BME280;51369;49.862;9.908;2023-04-21T01:01:55;98007.44;;;9.98;81.95
64876;BME280;51369;49.862;9.908;2023-04-21T01:04:21;97998.50;;;9.97;82.01
64876;BME280;51369;49.862;9.908;2023-04-21T01:06:46;98005.69;;;9.97;81.62
64876;BME280;51369;49.862;9.908;2023-04-21T01:09:12;98004.81;;;9.96;80.88
64876;BME280;51369;49.862;9.908;2023-04-21T01:11:38;98009.34;;;9.96;82.09
64876;BME280;51369;49.862;9.908;2023-04-21T01:14:06;98001.31;;;9.94;82.03
64876;BME280;51369;49.862;9.908;2023-04-21T01:16:31;97996.88;;;9.93;81.76
64876;BME280;51369;49.862;9.908;2023-04-21T01:18:58;97996.06;;;9.91;81.38
64876;BME280;51369;49.862;9.908;2023-04-21T01:21:24;97997.91;;;9.91;81.16
64876;BME280;51369;49.862;9.908;2023-04-21T01:23:52;97997.03;;;9.90;81.07
64876;BME280;51369;49.862;9.908;2023-04-21T01:26:19;97997.97;;;9.89;80.87
64876;BME280;51369;49.862;9.908;2023-04-21T01:28:46;98001.53;;;9.90;80.94
64876;BME280;51369;49.862;9.908;2023-04-21T01:31:14;98008.69;;;9.91;81.73
64876;BME280;51369;49.862;9.908;2023-04-21T01:33:41;98006.06;;;9.89;81.56
64876;BME280;51369;49.862;9.908;2023-04-21T01:36:08;98012.47;;;9.87;81.63
64876;BME280;51369;49.862;9.908;2023-04-21T01:38:37;98007.16;;;9.85;80.93
64876;BME280;51369;49.862;9.908;2023-04-21T01:41:02;98002.63;;;9.86;81.34
64876;BME280;51369;49.862;9.908;2023-04-21T01:43:28;97994.53;;;9.86;81.07
64876;BME280;51369;49.862;9.908;2023-04-21T01:45:55;97995.47;;;9.85;81.14
64876;BME280;51369;49.862;9.908;2023-04-21T01:48:20;98000.06;;;9.83;81.34
64876;BME280;51369;49.862;9.908;2023-04-21T01:50:46;97994.75;;;9.81;81.02
64876;BME280;51369;49.862;9.908;2023-04-21T01:53:11;97997.50;;;9.79;80.65
64876;BME280;51369;49.862;9.908;2023-04-21T01:55:37;98003.84;;;9.78;80.70
64876;BME280;51369;49.862;9.908;2023-04-21T01:58:06;98005.66;;;9.78;81.38
64876;BME280;51369;49.862;9.908;2023-04-21T02:00:31;98007.50;;;9.77;81.48
64876;BME280;51369;49.862;9.908;2023-04-21T02:02:57;98003.84;;;9.78;81.52
64876;BME280;51369;49.862;9.908;2023-04-21T02:05:22;98007.34;;;9.81;81.77
64876;BME280;51369;49.862;9.908;2023-04-21T02:07:48;98009.97;;;9.82;80.85
64876;BME280;51369;49.862;9.908;2023-04-21T02:10:13;98001.00;;;9.82;80.97
64876;BME280;51369;49.862;9.908;2023-04-21T02:12:41;97998.38;;;9.80;81.76
64876;BME280;51369;49.862;9.908;2023-04-21T02:15:08;97996.56;;;9.81;81.27
64876;BME280;51369;49.862;9.908;2023-04-21T02:17:34;97993.06;;;9.78;81.88
64876;BME280;51369;49.862;9.908;2023-04-21T02:20:00;97992.25;;;9.76;81.49
64876;BME280;51369;49.862;9.908;2023-04-21T02:22:26;98005.75;;;9.76;80.74
64876;BME280;51369;49.862;9.908;2023-04-21T02:24:51;98000.34;;;9.76;80.64
64876;BME280;51369;49.862;9.908;2023-04-21T02:27:18;97996.72;;;9.77;81.46
64876;BME280;51369;49.862;9.908;2023-04-21T02:29:43;97994.97;;;9.76;80.67
64876;BME280;51369;49.862;9.908;2023-04-21T02:32:08;97997.50;;;9.79;81.07
64876;BME280;51369;49.862;9.908;2023-04-21T02:34:34;97997.50;;;9.79;81.16
64876;BME280;51369;49.862;9.908;2023-04-21T02:36:59;97997.50;;;9.79;80.92
64876;BME280;51369;49.862;9.908;2023-04-21T02:39:25;98010.91;;;9.81;81.61
64876;BME280;51369;49.862;9.908;2023-04-21T02:41:50;98001.97;;;9.81;81.63
64876;BME280;51369;49.862;9.908;2023-04-21T02:44:16;98002.03;;;9.79;81.51
64876;BME280;51369;49.862;9.908;2023-04-21T02:46:41;97997.59;;;9.78;81.45
64876;BME280;51369;49.862;9.908;2023-04-21T02:49:10;98001.22;;;9.77;81.04
64876;BME280;51369;49.862;9.908;2023-04-21T02:51:36;97998.53;;;9.77;81.27
64876;BME280;51369;49.862;9.908;2023-04-21T02:54:01;98005.59;;;9.79;81.77
64876;BME280;51369;49.862;9.908;2023-04-21T02:56:27;98009.97;;;9.82;81.90
64876;BME280;51369;49.862;9.908;2023-04-21T02:58:52;98008.97;;;9.85;81.47
64876;BME280;51369;49.862;9.908;2023-04-21T03:01:18;98000.81;;;9.86;81.74
64876;BME280;51369;49.862;9.908;2023-04-21T03:03:43;98004.38;;;9.87;82.19
64876;BME280;51369;49.862;9.908;2023-04-21T03:06:09;98005.31;;;9.86;81.20
64876;BME280;51369;49.862;9.908;2023-04-21T03:08:35;98008.03;;;9.86;81.13
64876;BME280;51369;49.862;9.908;2023-04-21T03:11:00;98007.16;;;9.85;80.79
64876;BME280;51369;49.862;9.908;2023-04-21T03:13:26;98005.38;;;9.84;81.25
64876;BME280;51369;49.862;9.908;2023-04-21T03:15:51;98004.50;;;9.84;81.66
64876;BME280;51369;49.862;9.908;2023-04-21T03:18:17;98007.22;;;9.84;80.80
64876;BME280;51369;49.862;9.908;2023-04-21T03:20:43;97999.13;;;9.84;80.84
64876;BME280;51369;49.862;9.908;2023-04-21T03:23:08;98005.47;;;9.83;81.43
64876;BME280;51369;49.862;9.908;2023-04-21T03:25:34;97994.69;;;9.83;80.88
64876;BME280;51369;49.862;9.908;2023-04-21T03:28:00;97993.81;;;9.82;80.89
64876;BME280;51369;49.862;9.908;2023-04-21T03:30:26;97996.50;;;9.82;80.94
64876;BME280;51369;49.862;9.908;2023-04-21T03:32:51;97990.22;;;9.82;80.23
64876;BME280;51369;49.862;9.908;2023-04-21T03:35:18;97996.50;;;9.82;81.22
64876;BME280;51369;49.862;9.908;2023-04-21T03:37:43;98002.84;;;9.81;80.89
64876;BME280;51369;49.862;9.908;2023-04-21T03:40:09;98008.16;;;9.83;81.48
64876;BME280;51369;49.862;9.908;2023-04-21T03:42:34;98003.72;;;9.82;80.90
64876;BME280;51369;49.862;9.908;2023-04-21T03:45:04;97994.75;;;9.81;81.49
64876;BME280;51369;49.862;9.908;2023-04-21T03:47:32;97994.75;;;9.81;82.01
64876;BME280;51369;49.862;9.908;2023-04-21T03:49:57;97994.75;;;9.81;82.42
64876;BME280;51369;49.862;9.908;2023-04-21T03:52:23;97989.34;;;9.81;82.17
64876;BME280;51369;49.862;9.908;2023-04-21T03:54:48;97983.09;;;9.81;82.40
64876;BME280;51369;49.862;9.908;2023-04-21T03:57:14;97984.03;;;9.79;82.79
64876;BME280;51369;49.862;9.908;2023-04-21T03:59:41;97976.81;;;9.80;82.98
64876;BME280;51369;49.862;9.908;2023-04-21T04:02:06;97984.03;;;9.79;82.41
64876;BME280;51369;49.862;9.908;2023-04-21T04:04:31;97988.47;;;9.81;82.28
64876;BME280;51369;49.862;9.908;2023-04-21T04:06:57;97992.84;;;9.83;82.21
64876;BME280;51369;49.862;9.908;2023-04-21T04:09:22;97991.91;;;9.84;83.18
64876;BME280;51369;49.862;9.908;2023-04-21T04:11:48;97997.22;;;9.86;83.24
64876;BME280;51369;49.862;9.908;2023-04-21T04:14:14;97997.09;;;9.89;81.97
64876;BME280;51369;49.862;9.908;2023-04-21T04:16:40;97994.31;;;9.90;82.09
64876;BME280;51369;49.862;9.908;2023-04-21T04:19:06;97992.44;;;9.92;82.05
64876;BME280;51369;49.862;9.908;2023-04-21T04:21:32;97995.06;;;9.94;82.02
64876;BME280;51369;49.862;9.908;2023-04-21T04:23:58;97986.09;;;9.93;81.94
64876;BME280;51369;49.862;9.908;2023-04-21T04:26:24;97977.19;;;9.91;81.39
64876;BME280;51369;49.862;9.908;2023-04-21T04:28:50;97981.72;;;9.91;81.49
64876;BME280;51369;49.862;9.908;2023-04-21T04:31:16;97968.31;;;9.89;80.86
64876;BME280;51369;49.862;9.908;2023-04-21T04:33:42;97973.78;;;9.88;81.01
64876;BME280;51369;49.862;9.908;2023-04-21T04:36:08;97969.31;;;9.87;81.39
64876;BME280;51369;49.862;9.908;2023-04-21T04:38:36;97963.94;;;9.87;80.94
64876;BME280;51369;49.862;9.908;2023-04-21T04:41:02;97963.94;;;9.87;80.39
64876;BME280;51369;49.862;9.908;2023-04-21T04:43:29;97959.47;;;9.86;80.41
64876;BME280;51369;49.862;9.908;2023-04-21T04:45:58;97964.00;;;9.85;80.16
64876;BME280;51369;49.862;9.908;2023-04-21T04:48:23;97963.84;;;9.88;80.56
64876;BME280;51369;49.862;9.908;2023-04-21T04:50:49;97971.88;;;9.90;80.66
64876;BME280;51369;49.862;9.908;2023-04-21T04:53:14;97968.16;;;9.92;80.61
64876;BME280;51369;49.862;9.908;2023-04-21T04:55:40;97975.22;;;9.95;80.89
64876;BME280;51369;49.862;9.908;2023-04-21T04:58:05;97980.50;;;9.98;80.87
64876;BME280;51369;49.862;9.908;2023-04-21T05:00:31;97982.16;;;10.00;80.98
64876;BME280;51369;49.862;9.908;2023-04-21T05:02:56;97977.50;;;10.04;80.37
64876;BME280;51369;49.862;9.908;2023-04-21T05:05:22;97979.09;;;10.08;80.74
64876;BME280;51369;49.862;9.908;2023-04-21T05:07:49;97976.28;;;10.11;80.48
64876;BME280;51369;49.862;9.908;2023-04-21T05:10:14;97986.91;;;10.14;79.40
64876;BME280;51369;49.862;9.908;2023-04-21T05:12:39;97983.19;;;10.17;79.43
64876;BME280;51369;49.862;9.908;2023-04-21T05:15:05;97979.47;;;10.19;78.72
64876;BME280;51369;49.862;9.908;2023-04-21T05:17:32;97980.31;;;10.21;79.09
64876;BME280;51369;49.862;9.908;2023-04-21T05:19:57;97987.31;;;10.25;79.85
64876;BME280;51369;49.862;9.908;2023-04-21T05:22:23;97989.78;;;10.30;78.88
64876;BME280;51369;49.862;9.908;2023-04-21T05:24:48;97987.81;;;10.33;79.90
64876;BME280;51369;49.862;9.908;2023-04-21T05:27:13;97981.25;;;10.39;79.74
64876;BME280;51369;49.862;9.908;2023-04-21T05:29:39;97982.81;;;10.43;79.67
64876;BME280;51369;49.862;9.908;2023-04-21T05:32:04;97978.00;;;10.50;79.80
64876;BME280;51369;49.862;9.908;2023-04-21T05:34:31;97972.38;;;10.54;79.86
64876;BME280;51369;49.862;9.908;2023-04-21T05:36:56;97972.16;;;10.59;79.22
64876;BME280;51369;49.862;9.908;2023-04-21T05:39:21;97965.72;;;10.61;77.65
64876;BME280;51369;49.862;9.908;2023-04-21T05:41:47;97968.22;;;10.66;77.78
64876;BME280;51369;49.862;9.908;2023-04-21T05:44:15;97968.94;;;10.69;78.34
64876;BME280;51369;49.862;9.908;2023-04-21T05:46:41;97972.50;;;10.70;76.71
64876;BME280;51369;49.862;9.908;2023-04-21T05:49:06;97993.88;;;10.74;77.51
64876;BME280;51369;49.862;9.908;2023-04-21T05:51:32;98014.44;;;10.77;77.64
64876;BME280;51369;49.862;9.908;2023-04-21T05:53:57;98019.69;;;10.80;77.65
64876;BME280;51369;49.862;9.908;2023-04-21T05:56:23;98017.72;;;10.84;77.87
64876;BME280;51369;49.862;9.908;2023-04-21T05:58:48;98019.41;;;10.86;78.55
64876;BME280;51369;49.862;9.908;2023-04-21T06:01:13;98035.38;;;10.91;78.48
64876;BME280;51369;49.862;9.908;2023-04-21T06:03:39;98036.09;;;10.94;79.08
64876;BME280;51369;49.862;9.908;2023-04-21T06:06:05;98034.13;;;10.98;79.67
64876;BME280;51369;49.862;9.908;2023-04-21T06:08:31;98033.91;;;11.02;79.35
64876;BME280;51369;49.862;9.908;2023-04-21T06:10:56;98031.84;;;11.07;80.32
64876;BME280;51369;49.862;9.908;2023-04-21T06:13:21;98028.97;;;11.11;80.23
64876;BME280;51369;49.862;9.908;2023-04-21T06:15:47;98025.97;;;11.17;80.76
64876;BME280;51369;49.862;9.908;2023-04-21T06:18:12;98030.28;;;11.21;80.59
64876;BME280;51369;49.862;9.908;2023-04-21T06:20:37;98026.38;;;11.26;80.16
64876;BME280;51369;49.862;9.908;2023-04-21T06:23:05;98019.88;;;11.30;79.69
64876;BME280;51369;49.862;9.908;2023-04-21T06:25:30;98016.94;;;11.35;79.32
64876;BME280;51369;49.862;9.908;2023-04-21T06:27:55;98022.16;;;11.38;79.08
64876;BME280;51369;49.862;9.908;2023-04-21T06:30:21;98028.28;;;11.41;79.63
64876;BME280;51369;49.862;9.908;2023-04-21T06:32:46;98019.06;;;11.46;79.82
64876;BME280;51369;49.862;9.908;2023-04-21T06:35:13;98028.84;;;11.48;79.20
64876;BME280;51369;49.862;9.908;2023-04-21T06:37:42;98021.53;;;11.50;78.61
64876;BME280;51369;49.862;9.908;2023-04-21T06:40:07;98015.97;;;11.53;79.34
64876;BME280;51369;49.862;9.908;2023-04-21T06:42:33;98003.97;;;11.59;78.86
64876;BME280;51369;49.862;9.908;2023-04-21T06:44:59;98002.84;;;11.63;79.14
64876;BME280;51369;49.862;9.908;2023-04-21T06:47:24;98000.69;;;11.69;78.77
64876;BME280;51369;49.862;9.908;2023-04-21T06:49:50;97993.13;;;11.76;78.63
64876;BME280;51369;49.862;9.908;2023-04-21T06:52:15;97995.53;;;11.82;78.30
64876;BME280;51369;49.862;9.908;2023-04-21T06:54:41;97990.66;;;11.89;78.34
64876;BME280;51369;49.862;9.908;2023-04-21T06:57:06;97990.25;;;11.96;77.62
64876;BME280;51369;49.862;9.908;2023-04-21T06:59:31;97994.38;;;12.03;78.36
64876;BME280;51369;49.862;9.908;2023-04-21T07:01:58;97990.38;;;12.11;78.02
64876;BME280;51369;49.862;9.908;2023-04-21T07:04:23;97996.28;;;12.17;78.12
64876;BME280;51369;49.862;9.908;2023-04-21T07:06:54;97986.88;;;12.24;77.64
64876;BME280;51369;49.862;9.908;2023-04-21T07:09:20;97987.22;;;12.34;77.79
64876;BME280;51369;49.862;9.908;2023-04-21T07:11:45;97991.25;;;12.43;77.98
64876;BME280;51369;49.862;9.908;2023-04-21T07:14:11;97980.69;;;12.54;77.42
64876;BME280;51369;49.862;9.908;2023-04-21T07:16:36;97980.78;;;12.68;77.59
64876;BME280;51369;49.862;9.908;2023-04-21T07:19:01;97980.00;;;12.82;76.94
64876;BME280;51369;49.862;9.908;2023-04-21T07:21:27;97990.13;;;12.94;77.37
64876;BME280;51369;49.862;9.908;2023-04-21T07:23:54;97991.41;;;13.02;76.50
64876;BME280;51369;49.862;9.908;2023-04-21T07:26:19;97982.75;;;13.12;76.88
64876;BME280;51369;49.862;9.908;2023-04-21T07:28:45;97981.34;;;13.20;76.55
64876;BME280;51369;49.862;9.908;2023-04-21T07:31:10;97981.09;;;13.25;76.38
64876;BME280;51369;49.862;9.908;2023-04-21T07:33:36;97982.66;;;13.29;75.83
64876;BME280;51369;49.862;9.908;2023-04-21T07:36:01;97984.22;;;13.33;75.19
64876;BME280;51369;49.862;9.908;2023-04-21T07:38:27;97986.56;;;13.39;74.85
64876;BME280;51369;49.862;9.908;2023-04-21T07:40:52;97981.44;;;13.49;75.03
64876;BME280;51369;49.862;9.908;2023-04-21T07:43:18;97984.09;;;13.64;75.00
64876;BME280;51369;49.862;9.908;2023-04-21T07:45:44;97990.03;;;13.85;74.93
64876;BME280;51369;49.862;9.908;2023-04-21T07:48:09;97985.94;;;14.07;74.54
64876;BME280;51369;49.862;9.908;2023-04-21T07:50:35;97996.53;;;14.25;74.49
64876;BME280;51369;49.862;9.908;2023-04-21T07:53:00;97990.91;;;14.43;74.07
64876;BME280;51369;49.862;9.908;2023-04-21T07:55:26;97997.22;;;14.57;73.02
64876;BME280;51369;49.862;9.908;2023-04-21T07:57:52;97999.22;;;14.68;71.93
64876;BME280;51369;49.862;9.908;2023-04-21T08:00:18;98002.03;;;14.81;71.69
64876;BME280;51369;49.862;9.908;2023-04-21T08:02:43;98009.25;;;14.94;71.14
64876;BME280;51369;49.862;9.908;2023-04-21T08:05:08;98007.47;;;15.08;71.31
64876;BME280;51369;49.862;9.908;2023-04-21T08:07:34;98006.88;;;15.17;70.86
64876;BME280;51369;49.862;9.908;2023-04-21T08:09:59;98003.72;;;15.23;69.94
64876;BME280;51369;49.862;9.908;2023-04-21T08:12:25;98001.56;;;15.28;69.17
64876;BME280;51369;49.862;9.908;2023-04-21T08:14:51;97998.53;;;15.33;68.36
64876;BME280;51369;49.862;9.908;2023-04-21T08:17:16;97999.97;;;15.38;68.33
64876;BME280;51369;49.862;9.908;2023-04-21T08:19:42;98001.41;;;15.44;68.18
64876;BME280;51369;49.862;9.908;2023-04-21T08:22:08;97997.94;;;15.54;68.22
64876;BME280;51369;49.862;9.908;2023-04-21T08:24:33;97998.72;;;15.56;67.59
64876;BME280;51369;49.862;9.908;2023-04-21T08:26:58;97998.72;;;15.56;67.28
64876;BME280;51369;49.862;9.908;2023-04-21T08:29:26;97996.97;;;15.55;67.08
64876;BME280;51369;49.862;9.908;2023-04-21T08:31:51;97994.56;;;15.51;65.97
64876;BME280;51369;49.862;9.908;2023-04-21T08:34:16;97992.81;;;15.50;67.37
64876;BME280;51369;49.862;9.908;2023-04-21T08:36:44;97989.69;;;15.56;66.89
64876;BME280;51369;49.862;9.908;2023-04-21T08:39:11;97986.00;;;15.70;67.58
64876;BME280;51369;49.862;9.908;2023-04-21T08:41:38;97989.41;;;15.86;67.46
64876;BME280;51369;49.862;9.908;2023-04-21T08:44:05;97982.09;;;15.99;67.56
64876;BME280;51369;49.862;9.908;2023-04-21T08:46:31;97981.69;;;16.05;66.12
64876;BME280;51369;49.862;9.908;2023-04-21T08:48:57;97986.25;;;16.05;65.40
64876;BME280;51369;49.862;9.908;2023-04-21T08:51:26;97980.03;;;16.03;64.55
64876;BME280;51369;49.862;9.908;2023-04-21T08:53:53;97983.97;;;15.99;65.28
64876;BME280;51369;49.862;9.908;2023-04-21T08:56:19;97983.75;;;16.02;64.78
64876;BME280;51369;49.862;9.908;2023-04-21T08:58:44;97980.91;;;16.03;64.40
64876;BME280;51369;49.862;9.908;2023-04-21T09:01:11;97984.41;;;16.05;65.41
64876;BME280;51369;49.862;9.908;2023-04-21T09:03:37;97987.13;;;16.05;64.78
64876;BME280;51369;49.862;9.908;2023-04-21T09:06:04;97986.13;;;16.06;65.09
64876;BME280;51369;49.862;9.908;2023-04-21T09:08:30;97975.03;;;16.09;64.64
64876;BME280;51369;49.862;9.908;2023-04-21T09:10:58;97979.59;;;16.09;64.28
64876;BME280;51369;49.862;9.908;2023-04-21T09:13:34;97980.69;;;16.06;63.97
64876;BME280;51369;49.862;9.908;2023-04-21T09:16:01;97989.19;;;16.02;64.07
64876;BME280;51369;49.862;9.908;2023-04-21T09:18:29;97988.53;;;15.98;63.41
64876;BME280;51369;49.862;9.908;2023-04-21T09:21:06;97995.06;;;15.95;63.71
64876;BME280;51369;49.862;9.908;2023-04-21T09:23:39;97990.50;;;15.96;63.85
64876;BME280;51369;49.862;9.908;2023-04-21T09:26:06;97985.91;;;15.97;63.97
64876;BME280;51369;49.862;9.908;2023-04-21T09:28:31;97990.38;;;15.98;64.35
64876;BME280;51369;49.862;9.908;2023-04-21T09:30:57;97981.25;;;15.99;64.61
64876;BME280;51369;49.862;9.908;2023-04-21T09:33:22;97975.69;;;16.00;65.11
64876;BME280;51369;49.862;9.908;2023-04-21T09:35:48;97980.91;;;16.03;64.59
64876;BME280;51369;49.862;9.908;2023-04-21T09:38:14;97984.63;;;16.02;64.09
64876;BME280;51369;49.862;9.908;2023-04-21T09:40:39;97985.91;;;16.09;64.53
64876;BME280;51369;49.862;9.908;2023-04-21T09:43:06;97978.94;;;16.18;64.54
64876;BME280;51369;49.862;9.908;2023-04-21T09:45:32;97987.56;;;16.24;63.59
64876;BME280;51369;49.862;9.908;2023-04-21T09:47:59;97976.44;;;16.27;63.72
64876;BME280;51369;49.862;9.908;2023-04-21T09:50:27;97978.19;;;16.28;63.36
64876;BME280;51369;49.862;9.908;2023-04-21T09:52:54;97977.41;;;16.26;62.63
64876;BME280;51369;49.862;9.908;2023-04-21T09:55:25;97982.88;;;16.26;63.17
64876;BME280;51369;49.862;9.908;2023-04-21T09:57:58;97978.06;;;16.30;63.81
64876;BME280;51369;49.862;9.908;2023-04-21T10:00:26;97975.88;;;16.35;64.03
64876;BME280;51369;49.862;9.908;2023-04-21T10:02:53;97965.41;;;16.42;63.75
64876;BME280;51369;49.862;9.908;2023-04-21T10:05:18;97974.31;;;16.56;64.16
64876;BME280;51369;49.862;9.908;2023-04-21T10:07:46;97975.41;;;16.67;63.37
64876;BME280;51369;49.862;9.908;2023-04-21T10:10:20;97961.97;;;16.76;63.22
64876;BME280;51369;49.862;9.908;2023-04-21T10:12:47;97950.91;;;16.90;63.31
64876;BME280;51369;49.862;9.908;2023-04-21T10:15:39;97950.63;;;17.06;62.78
64876;BME280;51369;49.862;9.908;2023-04-21T10:18:20;97961.53;;;17.30;62.83
64876;BME280;51369;49.862;9.908;2023-04-21T10:23:32;97947.00;;;17.65;60.85
64876;BME280;51369;49.862;9.908;2023-04-21T10:28:59;97945.09;;;17.89;59.75
64876;BME280;51369;49.862;9.908;2023-04-21T10:36:33;97953.72;;;18.51;60.24
64876;BME280;51369;49.862;9.908;2023-04-21T10:39:03;97948.00;;;18.77;59.99
64876;BME280;51369;49.862;9.908;2023-04-21T10:41:32;97940.56;;;19.11;58.76
64876;BME280;51369;49.862;9.908;2023-04-21T10:43:59;97936.81;;;19.44;57.24
64876;BME280;51369;49.862;9.908;2023-04-21T10:46:38;97930.06;;;19.59;56.41
64876;BME280;51369;49.862;9.908;2023-04-21T10:49:09;97934.13;;;19.65;56.54
64876;BME280;51369;49.862;9.908;2023-04-21T10:54:29;97923.66;;;19.70;55.82
64876;BME280;51369;49.862;9.908;2023-04-21T10:56:58;97924.44;;;19.81;55.96
64876;BME280;51369;49.862;9.908;2023-04-21T10:59:25;97921.69;;;20.02;57.24
64876;BME280;51369;49.862;9.908;2023-04-21T11:01:51;97921.66;;;20.23;56.30
64876;BME280;51369;49.862;9.908;2023-04-21T11:04:20;97913.56;;;20.42;54.45
64876;BME280;51369;49.862;9.908;2023-04-21T11:07:05;97908.28;;;20.60;54.67
64876;BME280;51369;49.862;9.908;2023-04-21T11:09:33;97903.88;;;20.78;53.68
64876;BME280;51369;49.862;9.908;2023-04-21T11:12:33;97903.84;;;20.88;53.04
64876;BME280;51369;49.862;9.908;2023-04-21T11:14:50;97901.28;;;20.96;53.12
64876;BME280;51369;49.862;9.908;2023-04-21T11:17:18;97894.22;;;21.03;52.60
64876;BME280;51369;49.862;9.908;2023-04-21T11:19:46;97900.13;;;20.99;53.19
64876;BME280;51369;49.862;9.908;2023-04-21T11:22:11;97894.19;;;20.94;53.82
64876;BME280;51369;49.862;9.908;2023-04-21T11:24:37;97896.09;;;21.03;54.00
64876;BME280;51369;49.862;9.908;2023-04-21T11:27:07;97886.28;;;21.20;53.24
64876;BME280;51369;49.862;9.908;2023-04-21T11:29:33;97896.72;;;21.35;52.97
64876;BME280;51369;49.862;9.908;2023-04-21T11:31:58;97891.50;;;21.52;52.75
64876;BME280;51369;49.862;9.908;2023-04-21T11:34:25;97891.22;;;21.64;51.43
64876;BME280;51369;49.862;9.908;2023-04-21T11:36:51;97888.00;;;21.79;52.18
64876;BME280;51369;49.862;9.908;2023-04-21T11:39:18;97883.69;;;21.76;51.59
64876;BME280;51369;49.862;9.908;2023-04-21T11:41:48;97888.47;;;21.55;50.76
64876;BME280;51369;49.862;9.908;2023-04-21T11:44:38;97885.16;;;21.41;51.47
64876;BME280;51369;49.862;9.908;2023-04-21T11:47:14;97886.31;;;21.49;51.79
64876;BME280;51369;49.862;9.908;2023-04-21T11:50:06;97880.09;;;21.47;51.82
64876;BME280;51369;49.862;9.908;2023-04-21T11:52:35;97883.28;;;21.52;52.04
64876;BME280;51369;49.862;9.908;2023-04-21T11:55:13;97869.81;;;21.58;51.72
64876;BME280;51369;49.862;9.908;2023-04-21T11:57:44;97863.31;;;21.69;51.35
64876;BME280;51369;49.862;9.908;2023-04-21T12:00:11;97856.66;;;21.71;50.18
64876;BME280;51369;49.862;9.908;2023-04-21T12:02:40;97855.47;;;21.84;51.28
64876;BME280;51369;49.862;9.908;2023-04-21T12:05:10;97855.28;;;21.95;49.83
64876;BME280;51369;49.862;9.908;2023-04-21T12:07:44;97852.09;;;22.09;51.03
64876;BME280;51369;49.862;9.908;2023-04-21T12:10:16;97855.63;;;22.29;50.44
64876;BME280;51369;49.862;9.908;2023-04-21T12:12:42;97848.00;;;22.50;50.26
64876;BME280;51369;49.862;9.908;2023-04-21T12:15:10;97839.91;;;22.66;50.36
64876;BME280;51369;49.862;9.908;2023-04-21T12:17:46;97840.13;;;22.83;49.44
64876;BME280;51369;49.862;9.908;2023-04-21T12:20:14;97837.88;;;22.96;48.61
64876;BME280;51369;49.862;9.908;2023-04-21T12:22:40;97841.03;;;23.01;48.42
64876;BME280;51369;49.862;9.908;2023-04-21T12:25:06;97840.00;;;23.02;49.21
64876;BME280;51369;49.862;9.908;2023-04-21T12:27:31;97837.94;;;23.04;48.72
64876;BME280;51369;49.862;9.908;2023-04-21T12:29:56;97837.72;;;23.15;48.63
64876;BME280;51369;49.862;9.908;2023-04-21T12:32:22;97839.22;;;23.27;48.40
64876;BME280;51369;49.862;9.908;2023-04-21T12:34:48;97835.19;;;23.40;48.86
64876;BME280;51369;49.862;9.908;2023-04-21T12:37:13;97836.59;;;23.44;47.52
64876;BME280;51369;49.862;9.908;2023-04-21T12:39:39;97824.81;;;23.33;47.10
64876;BME280;51369;49.862;9.908;2023-04-21T12:42:04;97830.25;;;23.25;48.25
64876;BME280;51369;49.862;9.908;2023-04-21T12:44:30;97820.50;;;23.13;47.63
64876;BME280;51369;49.862;9.908;2023-04-21T12:46:56;97823.56;;;23.10;48.05
64876;BME280;51369;49.862;9.908;2023-04-21T12:49:22;97813.56;;;23.09;49.10
64876;BME280;51369;49.862;9.908;2023-04-21T12:51:48;97813.88;;;23.06;47.83
64876;BME280;51369;49.862;9.908;2023-04-21T12:54:13;97818.69;;;23.04;49.22
64876;BME280;51369;49.862;9.908;2023-04-21T12:56:40;97815.75;;;22.88;48.08
64876;BME280;51369;49.862;9.908;2023-04-21T12:59:06;97807.69;;;22.77;47.15
64876;BME280;51369;49.862;9.908;2023-04-21T13:01:32;97803.66;;;22.81;47.67
64876;BME280;51369;49.862;9.908;2023-04-21T13:03:58;97800.50;;;22.93;48.83
64876;BME280;51369;49.862;9.908;2023-04-21T13:06:24;97797.69;;;23.03;48.25
64876;BME280;51369;49.862;9.908;2023-04-21T13:08:50;97797.59;;;23.13;47.72
64876;BME280;51369;49.862;9.908;2023-04-21T13:11:15;97793.41;;;23.26;47.05
64876;BME280;51369;49.862;9.908;2023-04-21T13:13:41;97797.34;;;23.42;46.53
64876;BME280;51369;49.862;9.908;2023-04-21T13:16:06;97799.22;;;23.59;48.68